Time;durP1;ratioP1;P1;durP2;ratioP2;P2;SDS_P1;SDS_P2;PMS_P1;PMS_P2;Temp;Humidity;BMP_temperature;BMP_pressure;BME280_temperature;BME280_humidity;BME280_pressure;Samples;Min_cycle;Max_cycle;Signal;HPM_P1;HPM_P2
2023/06/20 00:00:37;;;;;;;14.75;13.10;;;24.30;99.90;;;;;;5022327;28;20116;-69
2023/06/20 00:03:03;;;;;;;16.00;13.90;;;24.20;99.90;;;;;;5022889;28;20109;-69
2023/06/20 00:05:29;;;;;;;15.32;13.20;;;24.20;99.90;;;;;;5026341;28;20087;-70
2023/06/20 00:07:54;;;;;;;20.95;13.18;;;24.30;99.90;;;;;;5027620;28;20021;-69
2023/06/20 00:10:20;;;;;;;16.05;13.45;;;24.30;99.90;;;;;;5027397;28;20029;-70
2023/06/20 00:12:46;;;;;;;15.55;13.95;;;24.20;99.90;;;;;;5026546;28;20065;-69
2023/06/20 00:15:12;;;;;;;17.00;14.50;;;24.20;99.90;;;;;;5027092;28;20141;-69
2023/06/20 00:17:38;;;;;;;16.25;14.43;;;24.20;99.90;;;;;;5026000;28;20037;-69
2023/06/20 00:20:08;;;;;;;19.05;14.18;;;24.20;99.90;;;;;;5027286;28;20018;-69
2023/06/20 00:22:35;;;;;;;16.30;14.60;;;24.20;99.90;;;;;;5026211;28;20034;-69
2023/06/20 00:25:04;;;;;;;17.30;14.98;;;24.20;99.90;;;;;;5025667;28;20045;-69
2023/06/20 00:27:30;;;;;;;17.77;14.60;;;24.20;99.90;;;;;;5027827;28;20468;-69
2023/06/20 00:29:56;;;;;;;19.73;15.35;;;24.20;99.90;;;;;;5024544;28;20022;-69
2023/06/20 00:32:22;;;;;;;18.77;14.45;;;24.20;99.90;;;;;;5008809;28;20588;-69
2023/06/20 00:34:47;;;;;;;18.05;14.73;;;24.10;99.90;;;;;;5026588;28;20160;-70
2023/06/20 00:37:13;;;;;;;21.10;16.75;;;24.10;99.90;;;;;;5025617;28;20037;-69
2023/06/20 00:39:39;;;;;;;17.60;15.55;;;24.10;99.90;;;;;;5025424;28;20026;-70
2023/06/20 00:42:05;;;;;;;18.48;16.55;;;24.10;99.90;;;;;;5026642;28;20026;-69
2023/06/20 00:44:31;;;;;;;18.15;16.25;;;24.10;99.90;;;;;;5027348;28;20105;-69
2023/06/20 00:46:57;;;;;;;16.77;15.15;;;24.10;99.90;;;;;;5027186;28;20176;-69
2023/06/20 00:49:23;;;;;;;18.67;14.30;;;24.00;99.90;;;;;;5023632;28;20026;-70
2023/06/20 00:51:49;;;;;;;16.85;15.15;;;24.00;99.90;;;;;;5029094;28;20547;-70
2023/06/20 00:54:15;;;;;;;16.27;14.57;;;24.00;99.90;;;;;;5028766;28;20497;-70
2023/06/20 00:56:42;;;;;;;16.75;14.70;;;24.00;99.90;;;;;;5023945;28;20037;-70
2023/06/20 00:59:08;;;;;;;17.05;15.07;;;24.00;99.90;;;;;;5024023;28;20036;-69
2023/06/20 01:01:34;;;;;;;19.42;16.35;;;24.00;99.90;;;;;;5021584;28;20412;-70
2023/06/20 01:04:00;;;;;;;18.75;16.85;;;23.90;99.90;;;;;;5033456;28;20041;-70
2023/06/20 01:06:42;;;;;;;16.85;15.05;;;23.90;99.90;;;;;;5016944;28;20377;-70
2023/06/20 01:09:17;;;;;;;17.30;14.80;;;23.90;99.90;;;;;;5024959;28;20382;-70
2023/06/20 01:11:49;;;;;;;17.10;15.18;;;23.90;99.90;;;;;;5020991;28;20111;-70
2023/06/20 01:14:53;;;;;;;20.05;15.70;;;23.90;99.90;;;;;;5020862;28;20101;-69
2023/06/20 01:17:36;;;;;;;16.23;14.65;;;23.70;99.90;;;;;;5022924;28;20049;-69
2023/06/20 01:20:14;;;;;;;;;;;23.70;99.90;;;;;;5012264;28;20022;-69
2023/06/20 01:22:49;;;;;;;18.85;16.48;;;23.80;99.90;;;;;;5015520;28;19905;-69
2023/06/20 01:25:38;;;;;;;18.77;16.88;;;23.80;99.90;;;;;;5026865;28;20030;-69
2023/06/20 01:28:06;;;;;;;16.75;14.98;;;23.70;99.90;;;;;;5023935;28;20021;-69
2023/06/20 01:30:47;;;;;;;17.27;14.68;;;23.70;99.90;;;;;;5016834;28;20171;-70
2023/06/20 01:33:17;;;;;;;17.70;15.30;;;23.50;99.90;;;;;;5022082;28;20033;-69
2023/06/20 01:35:47;;;;;;;19.85;16.05;;;23.60;99.90;;;;;;5025308;28;20432;-69
2023/06/20 01:38:14;;;;;;;17.35;15.40;;;23.60;99.90;;;;;;5024895;28;20025;-69
2023/06/20 01:40:41;;;;;;;18.85;15.65;;;23.60;99.90;;;;;;5026766;28;20017;-69
2023/06/20 01:43:07;;;;;;;16.60;14.82;;;23.50;99.90;;;;;;5024542;28;20026;-69
2023/06/20 01:45:38;;;;;;;17.15;15.45;;;23.40;99.90;;;;;;5027830;28;20455;-69
2023/06/20 01:48:06;;;;;;;17.10;14.35;;;23.40;99.90;;;;;;5026169;28;20058;-70
2023/06/20 01:50:32;;;;;;;16.42;14.82;;;23.40;99.90;;;;;;5018338;28;20603;-69
2023/06/20 01:53:00;;;;;;;16.13;14.63;;;23.50;99.90;;;;;;5024081;28;20068;-70
2023/06/20 01:55:28;;;;;;;18.70;15.65;;;23.50;99.90;;;;;;5025200;28;20025;-70
2023/06/20 01:57:57;;;;;;;16.88;15.07;;;23.50;99.90;;;;;;5025229;28;20024;-69
2023/06/20 02:00:26;;;;;;;17.08;15.25;;;23.50;99.90;;;;;;5021912;28;20037;-70
2023/06/20 02:02:57;;;;;;;18.88;16.90;;;23.50;99.90;;;;;;5022843;28;20466;-70
2023/06/20 02:05:26;;;;;;;18.10;15.77;;;23.40;99.90;;;;;;5024339;28;20053;-71
2023/06/20 02:07:55;;;;;;;20.88;16.17;;;23.40;99.90;;;;;;5022239;28;20022;-70
2023/06/20 02:10:21;;;;;;;18.45;16.67;;;23.40;99.90;;;;;;5028112;28;20033;-70
2023/06/20 02:12:50;;;;;;;19.58;15.98;;;23.50;99.90;;;;;;5019738;28;20413;-69
2023/06/20 02:15:18;;;;;;;19.02;15.20;;;23.40;99.90;;;;;;5022641;28;20024;-70
2023/06/20 02:17:45;;;;;;;20.75;17.13;;;23.40;99.90;;;;;;5005308;28;20022;-69
2023/06/20 02:20:12;;;;;;;19.30;17.15;;;23.40;99.90;;;;;;5019966;28;20018;-70
2023/06/20 02:22:41;;;;;;;20.38;16.55;;;23.40;99.90;;;;;;5022129;28;20105;-69
2023/06/20 02:25:10;;;;;;;18.38;15.77;;;23.30;99.90;;;;;;5022216;28;20036;-69
2023/06/20 02:27:39;;;;;;;21.15;18.85;;;23.30;99.90;;;;;;5005509;28;20112;-69
2023/06/20 02:30:09;;;;;;;20.63;17.23;;;23.30;99.90;;;;;;5025133;28;20121;-70
2023/06/20 02:32:37;;;;;;;18.75;16.80;;;23.40;99.90;;;;;;5012068;28;20048;-69
2023/06/20 02:35:06;;;;;;;23.75;17.25;;;23.30;99.90;;;;;;5027197;28;20024;-69
2023/06/20 02:37:34;;;;;;;20.13;18.00;;;23.30;99.90;;;;;;5018665;28;20046;-70
2023/06/20 02:39:59;;;;;;;20.35;17.75;;;23.20;99.90;;;;;;5012887;28;20127;-70
2023/06/20 02:42:25;;;;;;;20.73;16.88;;;23.20;99.90;;;;;;5026778;28;20415;-69
2023/06/20 02:44:51;;;;;;;21.38;18.38;;;23.20;99.90;;;;;;5024264;28;20478;-70
2023/06/20 02:47:33;;;;;;;18.38;16.58;;;23.20;99.90;;;;;;5028819;28;20535;-69
2023/06/20 02:50:00;;;;;;;22.45;18.10;;;23.20;99.90;;;;;;5030667;28;20105;-70
2023/06/20 02:52:46;;;;;;;20.58;17.90;;;23.10;99.90;;;;;;5025420;28;20033;-69
2023/06/20 02:55:31;;;;;;;20.48;17.77;;;22.90;99.90;;;;;;5023693;28;20026;-69
2023/06/20 02:58:00;;;;;;;20.48;18.38;;;22.90;99.90;;;;;;5024683;28;20037;-69
2023/06/20 03:00:26;;;;;;;19.65;16.90;;;22.60;99.90;;;;;;5025239;28;20026;-69
2023/06/20 03:03:10;;;;;;;21.30;17.40;;;22.60;99.90;;;;;;5022665;28;20053;-69
2023/06/20 03:05:42;;;;;;;19.48;17.17;;;22.10;99.90;;;;;;5028124;28;20382;-70
2023/06/20 03:08:09;;;;;;;20.37;18.23;;;22.30;99.90;;;;;;5023942;28;20032;-70
2023/06/20 03:10:36;;;;;;;25.00;18.38;;;22.50;99.90;;;;;;5027965;28;20055;-69
2023/06/20 03:13:03;;;;;;;20.75;17.15;;;22.50;99.90;;;;;;5024592;28;20042;-69
2023/06/20 03:15:29;;;;;;;22.30;17.83;;;22.50;99.90;;;;;;5018797;28;20014;-70
2023/06/20 03:17:55;;;;;;;22.00;18.83;;;22.50;99.90;;;;;;5021318;28;20159;-69
2023/06/20 03:20:20;;;;;;;24.75;19.83;;;22.40;99.90;;;;;;5022527;28;20100;-69
2023/06/20 03:22:46;;;;;;;24.85;18.05;;;22.50;99.90;;;;;;5022459;28;20036;-69
2023/06/20 03:25:12;;;;;;;21.17;16.75;;;22.60;99.90;;;;;;5008245;28;20018;-69
2023/06/20 03:27:38;;;;;;;23.27;17.65;;;22.50;99.90;;;;;;5022605;28;20029;-69
2023/06/20 03:30:05;;;;;;;23.80;16.98;;;22.30;99.90;;;;;;5027550;28;20018;-70
2023/06/20 03:32:31;;;;;;;21.13;17.63;;;22.20;99.90;;;;;;5024953;28;20033;-69
2023/06/20 03:34:57;;;;;;;22.27;18.25;;;22.00;99.90;;;;;;5025431;28;20056;-69
2023/06/20 03:37:22;;;;;;;20.83;18.17;;;22.10;99.90;;;;;;5020277;28;20053;-69
2023/06/20 03:39:48;;;;;;;26.40;18.42;;;22.20;99.90;;;;;;5026460;28;20026;-69
2023/06/20 03:42:14;;;;;;;22.77;18.45;;;22.20;99.90;;;;;;5031830;28;20025;-69
2023/06/20 03:44:39;;;;;;;20.92;17.35;;;22.30;99.90;;;;;;5027423;28;20021;-69
2023/06/20 03:47:05;;;;;;;25.75;20.13;;;22.30;99.90;;;;;;5030494;28;20104;-69
2023/06/20 03:49:31;;;;;;;20.48;18.23;;;22.40;99.90;;;;;;5024067;28;20053;-69
2023/06/20 03:51:56;;;;;;;18.55;16.65;;;22.30;99.90;;;;;;5025544;28;20063;-69
2023/06/20 03:54:22;;;;;;;20.30;16.52;;;22.40;99.90;;;;;;5028814;28;20022;-69
2023/06/20 03:56:48;;;;;;;22.48;18.10;;;22.30;99.90;;;;;;5027557;28;20030;-69
2023/06/20 03:59:18;;;;;;;21.08;17.42;;;22.40;99.90;;;;;;5022604;28;20501;-69
2023/06/20 04:01:43;;;;;;;20.88;17.50;;;22.40;99.90;;;;;;5023676;28;20041;-69
2023/06/20 04:04:09;;;;;;;20.20;17.98;;;22.40;99.90;;;;;;5032586;28;20026;-70
2023/06/20 04:06:35;;;;;;;21.73;17.33;;;22.40;99.90;;;;;;5029124;28;20041;-69
2023/06/20 04:09:01;;;;;;;23.15;18.13;;;22.40;99.90;;;;;;5027092;28;20022;-69
2023/06/20 04:11:27;;;;;;;28.50;18.30;;;22.40;99.90;;;;;;5024068;28;20026;-69
2023/06/20 04:13:52;;;;;;;23.73;17.80;;;22.30;99.90;;;;;;5022912;28;20030;-69
2023/06/20 04:16:18;;;;;;;22.02;17.38;;;22.40;99.90;;;;;;5018076;28;20085;-69
2023/06/20 04:18:43;;;;;;;20.15;17.23;;;22.40;99.90;;;;;;5037217;28;20647;-69
2023/06/20 04:21:09;;;;;;;20.73;17.95;;;22.40;99.90;;;;;;5028129;28;20048;-69
2023/06/20 04:23:35;;;;;;;22.88;17.60;;;22.20;99.90;;;;;;5022524;28;20026;-69
2023/06/20 04:26:01;;;;;;;18.85;16.60;;;22.00;99.90;;;;;;5030100;28;20087;-70
2023/06/20 04:28:27;;;;;;;19.42;16.25;;;21.90;99.90;;;;;;5027331;28;20224;-70
2023/06/20 04:30:55;;;;;;;18.10;16.20;;;22.10;99.90;;;;;;5025886;28;20034;-69
2023/06/20 04:33:22;;;;;;;19.73;17.38;;;22.20;99.90;;;;;;5024222;28;20492;-70
2023/06/20 04:35:48;;;;;;;18.02;16.23;;;22.30;99.90;;;;;;5022398;28;20042;-70
2023/06/20 04:38:13;;;;;;;21.50;16.50;;;22.40;99.90;;;;;;5024777;28;20018;-71
2023/06/20 04:40:39;;;;;;;22.15;16.73;;;22.40;99.90;;;;;;5025520;28;20107;-70
2023/06/20 04:43:05;;;;;;;17.60;15.82;;;22.30;99.90;;;;;;5023017;28;20022;-70
2023/06/20 04:45:31;;;;;;;19.10;16.17;;;22.30;99.90;;;;;;5030284;28;20021;-71
2023/06/20 04:47:57;;;;;;;18.95;15.68;;;22.20;99.90;;;;;;5021852;28;20537;-71
2023/06/20 04:50:23;;;;;;;18.42;16.40;;;22.30;99.90;;;;;;5009117;28;20530;-71
2023/06/20 04:52:49;;;;;;;24.80;17.70;;;22.40;99.90;;;;;;5019478;28;20034;-70
2023/06/20 04:55:14;;;;;;;17.77;15.35;;;22.50;99.90;;;;;;5019200;28;20112;-71
2023/06/20 04:57:40;;;;;;;17.92;14.57;;;22.30;99.90;;;;;;5025551;28;20108;-71
2023/06/20 05:00:12;;;;;;;17.55;15.35;;;22.30;99.90;;;;;;5013520;28;20477;-71
2023/06/20 05:02:42;;;;;;;21.05;15.80;;;22.40;99.90;;;;;;5022805;28;20475;-71
2023/06/20 05:05:09;;;;;;;20.17;15.63;;;22.50;99.90;;;;;;5024186;28;20056;-69
2023/06/20 05:07:34;;;;;;;19.38;15.55;;;22.30;99.90;;;;;;5009451;28;20013;-71
2023/06/20 05:10:00;;;;;;;17.73;15.85;;;22.30;99.90;;;;;;5026225;28;20127;-71
2023/06/20 05:12:26;;;;;;;20.67;14.85;;;22.30;99.90;;;;;;5029289;28;20038;-71
2023/06/20 05:14:51;;;;;;;17.92;14.35;;;22.30;99.90;;;;;;5027804;28;20101;-70
2023/06/20 05:17:17;;;;;;;16.63;14.88;;;22.40;99.90;;;;;;5024416;28;20081;-71
2023/06/20 05:19:42;;;;;;;21.77;16.00;;;22.40;99.90;;;;;;5023855;28;20022;-70
2023/06/20 05:22:08;;;;;;;22.67;16.15;;;22.40;99.90;;;;;;5026930;28;20491;-71
2023/06/20 05:24:34;;;;;;;19.95;16.33;;;22.50;99.90;;;;;;5024042;28;20474;-71
2023/06/20 05:26:59;;;;;;;17.70;15.80;;;22.60;99.90;;;;;;5020857;28;20022;-71
2023/06/20 05:29:25;;;;;;;17.98;14.32;;;22.50;99.90;;;;;;5028415;28;20026;-69
2023/06/20 05:31:51;;;;;;;14.45;12.95;;;22.40;99.90;;;;;;5021775;28;20038;-68
2023/06/20 05:34:16;;;;;;;16.85;13.50;;;22.40;99.90;;;;;;5018048;28;20025;-69
2023/06/20 05:36:42;;;;;;;17.73;12.93;;;22.40;99.90;;;;;;5028483;28;20097;-69
2023/06/20 05:39:09;;;;;;;14.00;12.35;;;22.50;99.90;;;;;;5024667;28;20025;-69
2023/06/20 05:41:36;;;;;;;15.05;13.55;;;22.50;99.90;;;;;;5017889;28;20124;-69
2023/06/20 05:44:02;;;;;;;16.58;13.50;;;22.50;99.90;;;;;;5024290;28;20100;-69
2023/06/20 05:46:27;;;;;;;17.05;14.32;;;22.50;99.90;;;;;;5025190;28;20378;-68
2023/06/20 05:48:53;;;;;;;17.33;12.77;;;22.40;99.90;;;;;;5020967;28;20025;-69
2023/06/20 05:51:19;;;;;;;16.05;12.68;;;22.50;99.90;;;;;;5018551;28;20034;-69
2023/06/20 05:53:44;;;;;;;13.35;12.00;;;22.40;99.90;;;;;;5013163;28;20136;-69
2023/06/20 05:56:10;;;;;;;17.52;12.13;;;22.40;99.90;;;;;;5021509;28;20036;-70
2023/06/20 05:58:36;;;;;;;14.55;11.60;;;22.40;99.90;;;;;;5023061;28;20022;-70
2023/06/20 06:01:05;;;;;;;10.70;9.60;;;22.50;99.90;;;;;;5027849;28;20029;-70
2023/06/20 06:03:34;;;;;;;10.95;9.52;;;22.50;99.90;;;;;;5020558;28;20018;-69
2023/06/20 06:06:00;;;;;;;9.50;8.20;;;22.50;99.90;;;;;;5019589;28;20042;-69
2023/06/20 06:08:26;;;;;;;7.88;7.18;;;22.60;99.90;;;;;;5025224;28;20080;-69
2023/06/20 06:10:52;;;;;;;7.25;6.47;;;22.50;99.90;;;;;;5020983;28;20037;-70
2023/06/20 06:13:18;;;;;;;7.15;6.55;;;22.50;99.90;;;;;;5021632;28;20029;-70
2023/06/20 06:15:43;;;;;;;7.47;6.32;;;22.60;99.90;;;;;;5027950;28;20044;-69
2023/06/20 06:18:09;;;;;;;5.95;5.47;;;22.60;99.90;;;;;;5021584;28;20105;-69
2023/06/20 06:20:35;;;;;;;5.90;5.18;;;22.60;99.90;;;;;;5001153;28;20112;-72
2023/06/20 06:23:01;;;;;;;5.60;5.15;;;22.70;99.90;;;;;;5022799;28;20029;-72
2023/06/20 06:25:26;;;;;;;5.53;4.50;;;22.90;99.90;;;;;;5014683;28;20477;-71
2023/06/20 06:27:52;;;;;;;6.30;5.72;;;22.90;99.90;;;;;;5026053;28;20486;-69
2023/06/20 06:30:18;;;;;;;6.13;4.35;;;23.00;99.90;;;;;;5004246;28;20466;-70
2023/06/20 06:32:47;;;;;;;5.20;4.70;;;23.00;99.90;;;;;;5022816;28;20044;-70
2023/06/20 06:35:15;;;;;;;4.47;4.18;;;23.10;99.90;;;;;;5015550;28;20018;-70
2023/06/20 06:37:41;;;;;;;5.55;4.70;;;23.20;99.90;;;;;;5029772;28;20052;-70
2023/06/20 06:40:09;;;;;;;5.10;4.35;;;23.20;99.90;;;;;;5025606;28;20017;-70
2023/06/20 06:42:35;;;;;;;5.10;4.45;;;23.30;99.90;;;;;;5020081;28;20026;-71
2023/06/20 06:45:01;;;;;;;4.95;4.45;;;23.30;99.90;;;;;;5030930;28;20020;-71
2023/06/20 06:47:26;;;;;;;4.85;4.20;;;23.30;99.90;;;;;;5014295;28;20028;-71
2023/06/20 06:49:52;;;;;;;6.60;4.78;;;23.40;99.90;;;;;;5025244;28;20097;-72
2023/06/20 06:52:18;;;;;;;5.55;4.47;;;23.40;99.90;;;;;;5020088;28;20045;-72
2023/06/20 06:54:44;;;;;;;5.32;4.38;;;23.50;99.90;;;;;;5020702;28;20490;-70
2023/06/20 06:57:09;;;;;;;5.47;4.97;;;23.50;99.90;;;;;;5030640;28;20033;-71
2023/06/20 06:59:35;;;;;;;6.07;4.57;;;23.60;99.90;;;;;;5030072;28;20042;-72
2023/06/20 07:02:00;;;;;;;4.68;4.28;;;23.50;99.90;;;;;;5024951;28;20515;-71
2023/06/20 07:04:26;;;;;;;7.03;4.70;;;23.40;99.90;;;;;;5014991;28;20029;-70
2023/06/20 07:06:52;;;;;;;5.43;4.50;;;23.40;99.90;;;;;;5022802;28;20022;-70
2023/06/20 07:09:17;;;;;;;5.25;4.32;;;23.50;99.90;;;;;;5022883;28;20037;-71
2023/06/20 07:11:43;;;;;;;4.95;4.35;;;23.70;99.90;;;;;;5024846;28;20044;-71
2023/06/20 07:14:09;;;;;;;5.53;5.03;;;23.70;99.90;;;;;;5013940;28;20093;-73
2023/06/20 07:16:34;;;;;;;5.20;4.80;;;23.80;99.90;;;;;;5017018;28;20079;-72
2023/06/20 07:19:00;;;;;;;7.28;5.00;;;24.00;99.90;;;;;;5033786;28;20072;-72
2023/06/20 07:21:27;;;;;;;5.25;4.75;;;24.20;99.90;;;;;;5029143;28;20553;-72
2023/06/20 07:23:52;;;;;;;5.38;4.88;;;24.10;99.90;;;;;;5027200;28;20018;-74
2023/06/20 07:26:18;;;;;;;6.75;4.97;;;24.30;99.90;;;;;;5031231;28;20123;-74
2023/06/20 07:28:44;;;;;;;4.55;4.05;;;24.40;99.90;;;;;;5026567;28;20041;-72
2023/06/20 07:31:17;;;;;;;5.32;4.82;;;24.50;99.90;;;;;;5028412;28;20029;-72
2023/06/20 07:33:43;;;;;;;5.32;4.88;;;24.60;99.90;;;;;;5028425;28;20090;-72
2023/06/20 07:36:08;;;;;;;7.15;5.28;;;24.60;99.90;;;;;;5030803;28;20026;-72
2023/06/20 07:38:34;;;;;;;5.60;4.93;;;24.90;99.90;;;;;;5028726;28;20021;-71
2023/06/20 07:41:00;;;;;;;4.70;4.30;;;25.00;99.90;;;;;;5021858;28;20029;-71
2023/06/20 07:43:25;;;;;;;5.57;4.70;;;25.00;99.90;;;;;;5033508;28;20025;-71
2023/06/20 07:45:51;;;;;;;5.35;4.93;;;25.10;99.90;;;;;;5013784;28;20033;-71
2023/06/20 07:48:17;;;;;;;6.80;5.22;;;25.40;99.90;;;;;;5026779;28;20038;-71
2023/06/20 07:50:43;;;;;;;7.82;5.55;;;25.30;99.90;;;;;;5025179;28;20079;-70
2023/06/20 07:53:08;;;;;;;6.60;5.57;;;25.30;99.90;;;;;;5025033;28;20084;-71
2023/06/20 07:55:34;;;;;;;6.03;5.20;;;25.30;99.90;;;;;;5026583;28;20021;-70
2023/06/20 07:58:00;;;;;;;7.03;5.68;;;25.40;99.90;;;;;;5032331;28;20025;-71
2023/06/20 08:00:28;;;;;;;6.13;4.75;;;25.40;99.90;;;;;;5028231;28;20014;-71
2023/06/20 08:02:53;;;;;;;5.80;4.72;;;25.30;99.90;;;;;;5024848;28;20053;-70
2023/06/20 08:05:19;;;;;;;5.55;4.95;;;25.40;99.90;;;;;;5023275;28;20057;-72
2023/06/20 08:07:44;;;;;;;6.30;5.20;;;25.50;99.90;;;;;;5027456;28;20083;-70
2023/06/20 08:10:10;;;;;;;6.00;5.47;;;25.60;99.90;;;;;;5028787;28;20026;-70
2023/06/20 08:12:37;;;;;;;7.47;5.25;;;25.60;99.90;;;;;;5026460;28;20057;-70
2023/06/20 08:15:03;;;;;;;5.30;4.80;;;25.80;99.90;;;;;;5027010;28;20032;-71
2023/06/20 08:17:29;;;;;;;5.30;4.80;;;25.80;99.90;;;;;;5029457;28;20033;-71
2023/06/20 08:19:56;;;;;;;7.38;5.65;;;25.80;99.90;;;;;;5028417;28;20024;-70
2023/06/20 08:22:22;;;;;;;6.07;5.57;;;25.80;99.90;;;;;;5024199;28;20026;-71
2023/06/20 08:24:47;;;;;;;6.05;5.18;;;25.70;99.90;;;;;;5030334;28;20120;-71
2023/06/20 08:27:13;;;;;;;7.50;5.85;;;25.80;99.90;;;;;;5033362;28;20072;-72
2023/06/20 08:29:39;;;;;;;6.60;4.78;;;25.90;99.90;;;;;;5028256;28;20044;-71
2023/06/20 08:32:04;;;;;;;5.50;5.07;;;26.10;99.90;;;;;;5027011;28;20033;-71
2023/06/20 08:34:31;;;;;;;5.45;4.93;;;26.30;99.90;;;;;;5028292;28;20085;-71
2023/06/20 08:36:56;;;;;;;5.65;4.20;;;26.20;99.90;;;;;;5023888;28;20036;-70
2023/06/20 08:39:22;;;;;;;5.35;4.07;;;26.10;99.90;;;;;;5024750;28;20026;-70
2023/06/20 08:41:51;;;;;;;7.63;4.93;;;26.10;99.90;;;;;;5031734;28;20046;-71
2023/06/20 08:44:16;;;;;;;5.10;4.45;;;26.30;99.90;;;;;;5027857;28;20101;-70
2023/06/20 08:46:44;;;;;;;5.95;4.50;;;26.60;99.90;;;;;;5025450;28;20112;-71
2023/06/20 08:49:11;;;;;;;5.13;4.60;;;26.70;99.90;;;;;;5011818;28;20025;-71
2023/06/20 08:51:39;;;;;;;6.82;3.90;;;26.60;99.90;;;;;;5027152;28;20072;-72
2023/06/20 08:54:09;;;;;;;6.15;5.10;;;26.70;99.90;;;;;;5023789;28;20064;-73
2023/06/20 08:56:35;;;;;;;4.88;4.45;;;26.90;99.90;;;;;;5029274;28;20030;-72
2023/06/20 08:59:00;;;;;;;5.53;4.40;;;27.00;99.90;;;;;;5031899;28;20032;-72
2023/06/20 09:01:26;;;;;;;5.05;4.55;;;27.20;99.90;;;;;;5023615;28;20034;-71
2023/06/20 09:03:56;;;;;;;6.18;4.97;;;27.40;99.90;;;;;;5011332;28;20025;-72
2023/06/20 09:06:37;;;;;;;6.55;4.50;;;27.40;99.90;;;;;;5029454;28;20022;-72
2023/06/20 09:09:13;;;;;;;3.70;3.30;;;27.40;99.90;;;;;;5030476;28;20053;-72
2023/06/20 09:11:39;;;;;;;4.00;3.63;;;27.70;99.90;;;;;;5016039;28;20072;-72
2023/06/20 09:14:05;;;;;;;4.78;4.00;;;27.40;99.90;;;;;;5023590;28;20046;-72
2023/06/20 09:16:30;;;;;;;6.53;4.03;;;27.60;99.90;;;;;;5027347;28;20022;-72
2023/06/20 09:19:01;;;;;;;6.43;3.83;;;27.60;99.90;;;;;;5027206;28;20144;-71
2023/06/20 09:21:27;;;;;;;5.60;4.60;;;27.70;99.90;;;;;;5023499;28;20125;-72
2023/06/20 09:24:03;;;;;;;8.07;5.00;;;27.60;99.90;;;;;;5026983;28;20049;-71
2023/06/20 09:26:30;;;;;;;4.35;3.75;;;27.70;99.90;;;;;;5029232;28;20018;-72
2023/06/20 09:29:11;;;;;;;6.20;3.60;;;27.80;99.90;;;;;;5023892;28;20024;-72
2023/06/20 09:31:41;;;;;;;4.93;3.70;;;27.90;99.90;;;;;;5026244;28;20517;-71
2023/06/20 09:34:12;;;;;;;3.70;3.40;;;27.90;99.90;;;;;;5021347;28;20042;-71
2023/06/20 09:36:40;;;;;;;4.03;3.70;;;28.10;99.90;;;;;;4998489;28;20025;-71
2023/06/20 09:39:20;;;;;;;4.20;3.80;;;28.40;99.90;;;;;;5017338;28;20021;-71
2023/06/20 09:41:52;;;;;;;4.32;3.90;;;28.50;99.90;;;;;;5007992;28;20533;-71
2023/06/20 09:44:19;;;;;;;4.38;3.85;;;28.50;99.90;;;;;;5022730;28;20032;-71
2023/06/20 09:46:46;;;;;;;5.65;5.03;;;28.50;99.90;;;;;;5023247;28;20034;-72
2023/06/20 09:49:13;;;;;;;7.45;4.68;;;28.40;99.90;;;;;;5009858;28;20034;-71
2023/06/20 09:51:48;;;;;;;3.90;3.42;;;28.80;99.90;;;;;;5012230;28;20088;-71
2023/06/20 09:54:22;;;;;;;4.80;3.50;;;29.00;99.90;;;;;;5007630;28;20067;-73
2023/06/20 09:56:52;;;;;;;3.38;3.17;;;29.30;99.90;;;;;;5023464;28;20091;-72
2023/06/20 09:59:19;;;;;;;4.30;3.63;;;29.20;99.90;;;;;;5008410;28;20493;-72
2023/06/20 10:01:47;;;;;;;5.25;3.28;;;29.40;99.90;;;;;;5024401;28;20034;-72
2023/06/20 10:04:14;;;;;;;4.88;3.33;;;29.50;99.90;;;;;;5023269;28;20084;-72
2023/06/20 10:06:40;;;;;;;4.70;4.32;;;29.70;99.90;;;;;;5022222;28;20025;-72
2023/06/20 10:09:09;;;;;;;4.55;3.28;;;29.80;99.90;;;;;;5023480;28;20031;-72
2023/06/20 10:11:40;;;;;;;4.97;4.20;;;29.80;99.90;;;;;;5022743;28;20033;-72
2023/06/20 10:14:08;;;;;;;6.80;3.80;;;29.60;99.90;;;;;;5002771;28;20025;-72
2023/06/20 10:16:35;;;;;;;3.53;2.60;;;30.00;99.90;;;;;;5024482;28;20082;-72
2023/06/20 10:19:19;;;;;;;3.65;2.70;;;30.00;99.90;;;;;;5023643;28;20021;-72
2023/06/20 10:21:59;;;;;;;5.47;2.55;;;30.00;99.90;;;;;;5023813;28;20018;-71
2023/06/20 10:24:29;;;;;;;4.38;3.10;;;30.30;99.90;;;;;;5021504;28;20029;-72
2023/06/20 10:26:59;;;;;;;3.70;3.10;;;30.70;99.90;;;;;;5022952;28;20040;-72
2023/06/20 10:29:25;;;;;;;3.20;3.00;;;30.80;99.90;;;;;;5007863;28;20104;-72
2023/06/20 10:31:56;;;;;;;3.42;2.83;;;30.60;99.90;;;;;;5022231;28;20156;-72
2023/06/20 10:34:35;;;;;;;4.07;2.90;;;30.50;99.90;;;;;;5007457;28;20033;-72
2023/06/20 10:37:35;;;;;;;5.28;3.05;;;30.80;99.90;;;;;;5026774;28;20025;-72
2023/06/20 10:40:01;;;;;;;2.80;2.60;;;30.90;99.90;;;;;;4967954;28;20393;-72
2023/06/20 10:42:41;;;;;;;4.05;3.10;;;31.00;99.90;;;;;;5022785;28;20014;-72
2023/06/20 10:45:16;;;;;;;4.03;2.97;;;30.90;99.90;;;;;;5021482;28;20100;-72
2023/06/20 10:47:42;;;;;;;4.82;2.60;;;31.10;99.90;;;;;;5022870;28;20100;-72
2023/06/20 10:50:08;;;;;;;4.60;2.90;;;31.40;99.90;;;;;;5023084;28;20108;-72
2023/06/20 10:52:35;;;;;;;5.95;2.65;;;31.50;99.90;;;;;;5023299;28;20041;-72
2023/06/20 10:55:01;;;;;;;3.40;3.15;;;31.20;99.90;;;;;;5023818;28;20060;-71
2023/06/20 10:57:28;;;;;;;5.28;3.08;;;31.00;99.90;;;;;;5022649;28;20037;-71
2023/06/20 10:59:54;;;;;;;3.58;2.63;;;30.90;99.90;;;;;;5003871;28;20385;-72
2023/06/20 11:02:20;;;;;;;5.70;2.83;;;31.40;99.90;;;;;;5021996;28;20087;-71
2023/06/20 11:04:48;;;;;;;3.90;3.20;;;31.00;99.90;;;;;;5022965;28;20029;-72
2023/06/20 11:07:13;;;;;;;3.10;2.90;;;31.00;99.90;;;;;;5023917;28;20017;-72
2023/06/20 11:09:40;;;;;;;4.18;2.58;;;31.40;99.90;;;;;;5009563;28;20037;-71
2023/06/20 11:12:07;;;;;;;10.18;2.97;;;31.60;99.90;;;;;;5006426;28;20033;-71
2023/06/20 11:14:33;;;;;;;5.38;2.95;;;31.20;99.90;;;;;;5005334;28;20047;-72
2023/06/20 11:17:00;;;;;;;3.78;2.58;;;31.20;99.90;;;;;;5023690;28;20021;-71
2023/06/20 11:19:28;;;;;;;3.30;2.10;;;31.60;99.90;;;;;;5022906;28;20044;-72
2023/06/20 11:21:55;;;;;;;4.45;2.53;;;31.80;99.90;;;;;;5023072;28;20041;-72
2023/06/20 11:24:21;;;;;;;2.88;2.67;;;31.60;99.90;;;;;;5020739;28;20493;-72
2023/06/20 11:26:47;;;;;;;2.35;2.25;;;31.60;99.90;;;;;;5004564;28;20029;-72
2023/06/20 11:29:13;;;;;;;5.70;2.70;;;32.00;99.90;;;;;;5023686;28;20037;-72
2023/06/20 11:31:40;;;;;;;5.68;3.42;;;32.00;99.90;;;;;;5009331;28;20076;-72
2023/06/20 11:34:10;;;;;;;3.20;2.72;;;32.00;99.90;;;;;;5021762;28;20080;-72
2023/06/20 11:36:38;;;;;;;6.40;2.65;;;32.10;99.90;;;;;;5020764;28;20032;-72
2023/06/20 11:39:08;;;;;;;3.65;2.47;;;32.40;99.90;;;;;;5020791;28;20025;-73
2023/06/20 11:41:35;;;;;;;4.57;2.70;;;32.00;99.90;;;;;;5020808;28;20044;-72
2023/06/20 11:44:01;;;;;;;3.95;2.60;;;32.00;99.90;;;;;;5021188;28;20481;-73
2023/06/20 11:46:27;;;;;;;3.47;2.60;;;32.00;99.90;;;;;;5020206;28;20026;-71
2023/06/20 11:48:57;;;;;;;2.80;2.60;;;32.00;99.90;;;;;;5020866;28;20029;-72
2023/06/20 11:51:25;;;;;;;5.00;3.00;;;32.30;99.90;;;;;;5019532;28;20041;-70
2023/06/20 11:54:12;;;;;;;3.63;2.83;;;32.30;99.90;;;;;;5022690;28;20123;-70
2023/06/20 11:56:38;;;;;;;3.15;2.47;;;32.30;99.90;;;;;;5020246;28;20033;-72
2023/06/20 11:59:04;;;;;;;4.30;3.00;;;32.40;99.90;;;;;;5019818;28;20049;-73
2023/06/20 12:01:32;;;;;;;2.65;2.45;;;32.10;99.90;;;;;;5023823;28;20030;-72
2023/06/20 12:04:10;;;;;;;9.02;2.80;;;32.10;99.90;;;;;;5007841;28;20120;-72
2023/06/20 12:06:37;;;;;;;3.10;2.90;;;32.30;99.90;;;;;;5025484;28;20237;-71
2023/06/20 12:09:13;;;;;;;4.88;2.60;;;32.40;99.90;;;;;;5027446;28;20026;-72
2023/06/20 12:11:49;;;;;;;3.15;2.95;;;32.60;99.90;;;;;;5023656;28;20045;-72
2023/06/20 12:14:18;;;;;;;3.92;3.05;;;32.80;99.90;;;;;;5025088;28;20018;-71
2023/06/20 12:16:44;;;;;;;4.70;2.88;;;32.80;99.90;;;;;;5006199;28;20067;-72
2023/06/20 12:19:10;;;;;;;5.85;2.75;;;33.00;99.50;;;;;;5024878;28;20029;-71
2023/06/20 12:21:38;;;;;;;3.33;3.08;;;33.10;99.90;;;;;;5021903;28;20037;-71
2023/06/20 12:24:05;;;;;;;3.80;3.20;;;32.60;99.70;;;;;;5022698;28;20033;-71
2023/06/20 12:26:30;;;;;;;5.03;3.13;;;32.60;99.90;;;;;;5022588;28;20021;-71
2023/06/20 12:28:56;;;;;;;3.00;2.72;;;32.90;99.90;;;;;;5003848;28;20045;-71
2023/06/20 12:31:24;;;;;;;3.08;2.78;;;33.00;99.90;;;;;;5021700;28;20060;-71
2023/06/20 12:33:50;;;;;;;3.45;3.15;;;33.10;99.10;;;;;;5020749;28;20104;-72
2023/06/20 12:36:16;;;;;;;5.32;2.92;;;33.40;99.40;;;;;;5021258;28;20134;-72
2023/06/20 12:38:42;;;;;;;3.70;3.15;;;33.30;99.90;;;;;;5024156;28;20098;-71
2023/06/20 12:41:07;;;;;;;3.63;2.70;;;33.60;99.30;;;;;;5020706;28;20021;-71